BAW5B LIPE-EGLL
Flight info
| Callsign | BAW5B |
|---|---|
| Flight time | N/A |
| Altitude | 36000 |
| Route | LUPOS1J/12 LUPOS DCT RIPDU DCT IVLOX DCT OSBUL DCT ABESI DCT UTAVO DCT HOC DCT LUL DCT RLP DCT ROTSI DCT KOTUN DCT NINAL DCT ABNUR DCT DIMAL DCT ALESO |
| Aircraft | A320/M-SDE3FGHIRWY/LB1 |
Departure
| Time | N/A |
|---|---|
| Airport | Bologna Guglielmo Marconi Airport (LIPE) |
Arrival
| Time | 2026-05-03 21:03 |
|---|---|
| Airport | London Heathrow Airport (EGLL) |
| Time | Latitude | Longitude | Altitude | Speed | Heading |
|---|---|---|---|---|---|
| 2026-05-03 20:15 | 48.29774 | 4.59885 | 36013 ft | 425 kts | 306° |
| 2026-05-03 20:15 | 48.33710 | 4.53271 | 36008 ft | 424 kts | 306° |
| 2026-05-03 20:16 | 48.37640 | 4.46645 | 36009 ft | 424 kts | 306° |
| 2026-05-03 20:16 | 48.41554 | 4.40009 | 36006 ft | 424 kts | 305° |
| 2026-05-03 20:17 | 48.45462 | 4.33365 | 36001 ft | 424 kts | 305° |
| 2026-05-03 20:17 | 48.49371 | 4.26716 | 35999 ft | 424 kts | 305° |
| 2026-05-03 20:18 | 48.53278 | 4.20060 | 35994 ft | 424 kts | 305° |
| 2026-05-03 20:18 | 48.57200 | 4.13355 | 35995 ft | 424 kts | 305° |
| 2026-05-03 20:19 | 48.61096 | 4.06677 | 35991 ft | 424 kts | 305° |
| 2026-05-03 20:19 | 48.64997 | 3.99985 | 35990 ft | 424 kts | 305° |
| 2026-05-03 20:20 | 48.68889 | 3.93279 | 35986 ft | 424 kts | 304° |
| 2026-05-03 20:20 | 48.72776 | 3.86552 | 35984 ft | 425 kts | 306° |
| 2026-05-03 20:21 | 48.76925 | 3.80098 | 35983 ft | 429 kts | 309° |
| 2026-05-03 20:21 | 48.81273 | 3.73865 | 35980 ft | 430 kts | 310° |
| 2026-05-03 20:22 | 48.85600 | 3.67597 | 35977 ft | 430 kts | 309° |
| 2026-05-03 20:22 | 48.89862 | 3.61237 | 35973 ft | 430 kts | 308° |
| 2026-05-03 20:23 | 48.94099 | 3.54828 | 35970 ft | 430 kts | 308° |
| 2026-05-03 20:23 | 48.98345 | 3.48411 | 35968 ft | 431 kts | 309° |
| 2026-05-03 20:24 | 49.02611 | 3.41987 | 35969 ft | 431 kts | 309° |
| 2026-05-03 20:24 | 49.06874 | 3.35556 | 35965 ft | 432 kts | 308° |
| 2026-05-03 20:25 | 49.11142 | 3.29104 | 35958 ft | 432 kts | 308° |
| 2026-05-03 20:25 | 49.15410 | 3.22637 | 35958 ft | 432 kts | 308° |
| 2026-05-03 20:26 | 49.19697 | 3.16109 | 35958 ft | 433 kts | 308° |
| 2026-05-03 20:26 | 49.23956 | 3.09595 | 35954 ft | 433 kts | 308° |
| 2026-05-03 20:27 | 49.28218 | 3.03053 | 35952 ft | 434 kts | 308° |
| 2026-05-03 20:27 | 49.32483 | 2.96498 | 35951 ft | 434 kts | 308° |
| 2026-05-03 20:28 | 49.36749 | 2.89943 | 35949 ft | 435 kts | 308° |
| 2026-05-03 20:28 | 49.41027 | 2.83356 | 35945 ft | 436 kts | 308° |
| 2026-05-03 20:29 | 49.45301 | 2.76742 | 35950 ft | 436 kts | 308° |
| 2026-05-03 20:29 | 49.49580 | 2.70113 | 35948 ft | 437 kts | 308° |
| 2026-05-03 20:30 | 49.53139 | 2.64575 | 35951 ft | 438 kts | 308° |
| 2026-05-03 20:30 | 49.57420 | 2.57896 | 35951 ft | 439 kts | 308° |
| 2026-05-03 20:31 | 49.61918 | 2.51406 | 35956 ft | 446 kts | 317° |
| 2026-05-03 20:31 | 49.66871 | 2.45637 | 35951 ft | 446 kts | 316° |
| 2026-05-03 20:32 | 49.71821 | 2.39829 | 35949 ft | 447 kts | 316° |
| 2026-05-03 20:32 | 49.76762 | 2.34002 | 35952 ft | 447 kts | 316° |
| 2026-05-03 20:33 | 49.81703 | 2.28161 | 35951 ft | 447 kts | 316° |
| 2026-05-03 20:33 | 49.86654 | 2.22309 | 35954 ft | 448 kts | 316° |
| 2026-05-03 20:34 | 49.91612 | 2.16437 | 35947 ft | 448 kts | 316° |
| 2026-05-03 20:34 | 49.96564 | 2.10543 | 35948 ft | 449 kts | 316° |
| 2026-05-03 20:35 | 50.01518 | 2.04628 | 35950 ft | 450 kts | 317° |
| 2026-05-03 20:35 | 50.06479 | 1.98691 | 35909 ft | 450 kts | 316° |
| 2026-05-03 20:35 | 50.08955 | 1.95717 | 35387 ft | 449 kts | 316° |
| 2026-05-03 20:36 | 50.11427 | 1.92749 | 34929 ft | 447 kts | 316° |
| 2026-05-03 20:36 | 50.13878 | 1.89803 | 34515 ft | 444 kts | 315° |
| 2026-05-03 20:36 | 50.16311 | 1.86869 | 34101 ft | 440 kts | 314° |
| 2026-05-03 20:36 | 50.18564 | 1.83728 | 33657 ft | 431 kts | 308° |
| 2026-05-03 20:37 | 50.20703 | 1.80471 | 33168 ft | 428 kts | 308° |
| 2026-05-03 20:37 | 50.22825 | 1.77238 | 32694 ft | 425 kts | 308° |
| 2026-05-03 20:37 | 50.24932 | 1.74021 | 32241 ft | 422 kts | 308° |
| 2026-05-03 20:37 | 50.27026 | 1.70823 | 31795 ft | 419 kts | 308° |
| 2026-05-03 20:38 | 50.29103 | 1.67650 | 31361 ft | 416 kts | 308° |
| 2026-05-03 20:38 | 50.31168 | 1.64493 | 30938 ft | 414 kts | 309° |
| 2026-05-03 20:38 | 50.33248 | 1.61314 | 30516 ft | 411 kts | 309° |
| 2026-05-03 20:38 | 50.35285 | 1.58193 | 30113 ft | 409 kts | 309° |
| 2026-05-03 20:39 | 50.37310 | 1.55079 | 29668 ft | 406 kts | 309° |
| 2026-05-03 20:39 | 50.39319 | 1.51990 | 29235 ft | 403 kts | 309° |
| 2026-05-03 20:39 | 50.41312 | 1.48922 | 28817 ft | 401 kts | 309° |
| 2026-05-03 20:39 | 50.43293 | 1.45866 | 28417 ft | 398 kts | 309° |
| 2026-05-03 20:40 | 50.45256 | 1.42830 | 28030 ft | 395 kts | 309° |
| 2026-05-03 20:40 | 50.47206 | 1.39814 | 27661 ft | 393 kts | 309° |
| 2026-05-03 20:40 | 50.49146 | 1.36816 | 27296 ft | 390 kts | 309° |
| 2026-05-03 20:40 | 50.51044 | 1.33789 | 26927 ft | 386 kts | 308° |
| 2026-05-03 20:41 | 50.52872 | 1.30725 | 26565 ft | 383 kts | 307° |
| 2026-05-03 20:41 | 50.54659 | 1.27644 | 26199 ft | 380 kts | 306° |
| 2026-05-03 20:41 | 50.56425 | 1.24575 | 25832 ft | 378 kts | 306° |
| 2026-05-03 20:41 | 50.58191 | 1.21527 | 25472 ft | 376 kts | 307° |
| 2026-05-03 20:42 | 50.59991 | 1.18566 | 25105 ft | 374 kts | 309° |
| 2026-05-03 20:42 | 50.61826 | 1.15668 | 24736 ft | 372 kts | 310° |
| 2026-05-03 20:42 | 50.63662 | 1.12822 | 24371 ft | 370 kts | 310° |
| 2026-05-03 20:42 | 50.65490 | 1.09994 | 24010 ft | 367 kts | 310° |
| 2026-05-03 20:43 | 50.67299 | 1.07174 | 23655 ft | 364 kts | 310° |
| 2026-05-03 20:43 | 50.69083 | 1.04367 | 23252 ft | 361 kts | 310° |
| 2026-05-03 20:43 | 50.70850 | 1.01571 | 22824 ft | 359 kts | 310° |
| 2026-05-03 20:43 | 50.72605 | 0.98780 | 22399 ft | 356 kts | 310° |
| 2026-05-03 20:44 | 50.74342 | 0.96012 | 21978 ft | 354 kts | 310° |
| 2026-05-03 20:44 | 50.76068 | 0.93258 | 21575 ft | 352 kts | 310° |
| 2026-05-03 20:44 | 50.77786 | 0.90521 | 21163 ft | 350 kts | 310° |
| 2026-05-03 20:44 | 50.79494 | 0.87798 | 20765 ft | 348 kts | 311° |
| 2026-05-03 20:45 | 50.81188 | 0.85094 | 20373 ft | 345 kts | 311° |
| 2026-05-03 20:45 | 50.82872 | 0.82399 | 19990 ft | 343 kts | 311° |
| 2026-05-03 20:45 | 50.84543 | 0.79724 | 19611 ft | 341 kts | 311° |
| 2026-05-03 20:45 | 50.86209 | 0.77061 | 19237 ft | 339 kts | 311° |
| 2026-05-03 20:46 | 50.87861 | 0.74416 | 18867 ft | 337 kts | 311° |
| 2026-05-03 20:46 | 50.89526 | 0.71747 | 18498 ft | 335 kts | 311° |
| 2026-05-03 20:46 | 50.91156 | 0.69128 | 18142 ft | 333 kts | 311° |
| 2026-05-03 20:46 | 50.92761 | 0.66542 | 17945 ft | 327 kts | 311° |
| 2026-05-03 20:47 | 50.94356 | 0.63964 | 17943 ft | 330 kts | 311° |
| 2026-05-03 20:47 | 50.95960 | 0.61366 | 17722 ft | 329 kts | 311° |
| 2026-05-03 20:47 | 50.97560 | 0.58773 | 17287 ft | 328 kts | 311° |
| 2026-05-03 20:47 | 50.99158 | 0.56189 | 16925 ft | 327 kts | 311° |
| 2026-05-03 20:48 | 51.00749 | 0.53619 | 16538 ft | 325 kts | 311° |
| 2026-05-03 20:48 | 51.02327 | 0.51067 | 16154 ft | 324 kts | 311° |
| 2026-05-03 20:48 | 51.03902 | 0.48516 | 15775 ft | 322 kts | 311° |
| 2026-05-03 20:48 | 51.05467 | 0.45978 | 15418 ft | 321 kts | 311° |
| 2026-05-03 20:49 | 51.07028 | 0.43446 | 15056 ft | 320 kts | 312° |
| 2026-05-03 20:49 | 51.08610 | 0.40964 | 14703 ft | 319 kts | 313° |
| 2026-05-03 20:49 | 51.10209 | 0.38531 | 14351 ft | 318 kts | 314° |
| 2026-05-03 20:49 | 51.11815 | 0.36113 | 14007 ft | 317 kts | 314° |
| 2026-05-03 20:50 | 51.13410 | 0.33708 | 13644 ft | 315 kts | 314° |
| 2026-05-03 20:50 | 51.14994 | 0.31305 | 13310 ft | 312 kts | 314° |
| 2026-05-03 20:50 | 51.16541 | 0.28951 | 12878 ft | 305 kts | 314° |
| 2026-05-03 20:50 | 51.18065 | 0.26627 | 12257 ft | 302 kts | 314° |
| 2026-05-03 20:51 | 51.19569 | 0.24327 | 11660 ft | 298 kts | 314° |
| 2026-05-03 20:51 | 51.21058 | 0.22045 | 11065 ft | 295 kts | 314° |
| 2026-05-03 20:51 | 51.22529 | 0.19789 | 10429 ft | 292 kts | 314° |
| 2026-05-03 20:51 | 51.23982 | 0.17553 | 9876 ft | 289 kts | 314° |
| 2026-05-03 20:52 | 51.25419 | 0.15338 | 9275 ft | 286 kts | 314° |
| 2026-05-03 20:52 | 51.26841 | 0.13143 | 8672 ft | 283 kts | 314° |
| 2026-05-03 20:52 | 51.28254 | 0.10959 | 8078 ft | 281 kts | 314° |
| 2026-05-03 20:52 | 51.29653 | 0.08798 | 7515 ft | 281 kts | 315° |
| 2026-05-03 20:53 | 51.31053 | 0.06633 | 7216 ft | 279 kts | 314° |
| 2026-05-03 20:53 | 51.32306 | 0.04301 | 6895 ft | 275 kts | 300° |
| 2026-05-03 20:53 | 51.33054 | 0.01519 | 6581 ft | 272 kts | 282° |
| 2026-05-03 20:53 | 51.33276 | -0.01503 | 6260 ft | 270 kts | 272° |
| 2026-05-03 20:54 | 51.33380 | -0.04493 | 5921 ft | 269 kts | 272° |
| 2026-05-03 20:54 | 51.33594 | -0.10424 | 5415 ft | 261 kts | 272° |
| 2026-05-03 20:54 | 51.33697 | -0.13276 | 5284 ft | 253 kts | 272° |
| 2026-05-03 20:55 | 51.33796 | -0.16040 | 5150 ft | 244 kts | 272° |
| 2026-05-03 20:55 | 51.33891 | -0.18704 | 4989 ft | 237 kts | 272° |
| 2026-05-03 20:55 | 51.34074 | -0.21300 | 4707 ft | 235 kts | 289° |
| 2026-05-03 20:55 | 51.35041 | -0.23326 | 4410 ft | 233 kts | 329° |
| 2026-05-03 20:56 | 51.36591 | -0.23873 | 4080 ft | 232 kts | 10° |
| 2026-05-03 20:56 | 51.37981 | -0.22685 | 3745 ft | 230 kts | 51° |
| 2026-05-03 20:56 | 51.38557 | -0.20356 | 3429 ft | 229 kts | 86° |
| 2026-05-03 20:56 | 51.38547 | -0.17802 | 3079 ft | 230 kts | 94° |
| 2026-05-03 20:57 | 51.38450 | -0.15260 | 2962 ft | 228 kts | 85° |
| 2026-05-03 20:57 | 51.39040 | -0.13053 | 3009 ft | 211 kts | 42° |
| 2026-05-03 20:57 | 51.40277 | -0.12022 | 3019 ft | 197 kts | 13° |
| 2026-05-03 20:57 | 51.41614 | -0.11796 | 3026 ft | 192 kts | 356° |
| 2026-05-03 20:58 | 51.42910 | -0.12234 | 2998 ft | 190 kts | 336° |
| 2026-05-03 20:58 | 51.44068 | -0.13249 | 3003 ft | 190 kts | 329° |
| 2026-05-03 20:58 | 51.45214 | -0.14304 | 3011 ft | 190 kts | 330° |
| 2026-05-03 20:58 | 51.46352 | -0.15375 | 2994 ft | 190 kts | 323° |
| 2026-05-03 20:59 | 51.47258 | -0.16890 | 3009 ft | 189 kts | 301° |
| 2026-05-03 20:59 | 51.47748 | -0.18835 | 2994 ft | 190 kts | 279° |
| 2026-05-03 20:59 | 51.47809 | -0.20942 | 2821 ft | 189 kts | 270° |
| 2026-05-03 20:59 | 51.47804 | -0.23040 | 2592 ft | 187 kts | 270° |
| 2026-05-03 21:00 | 51.47801 | -0.25123 | 2350 ft | 186 kts | 270° |
| 2026-05-03 21:00 | 51.47800 | -0.25828 | 2265 ft | 186 kts | 270° |
| 2026-05-03 21:00 | 51.47795 | -0.29253 | 1854 ft | 183 kts | 270° |
| 2026-05-03 21:00 | 51.47792 | -0.31322 | 1612 ft | 190 kts | 270° |
| 2026-05-03 21:01 | 51.47788 | -0.33446 | 1377 ft | 183 kts | 270° |
| 2026-05-03 21:01 | 51.47784 | -0.35402 | 1121 ft | 163 kts | 269° |
| 2026-05-03 21:01 | 51.47781 | -0.37118 | 895 ft | 147 kts | 269° |
| 2026-05-03 21:01 | 51.47779 | -0.38730 | 679 ft | 142 kts | 270° |
| 2026-05-03 21:02 | 51.47774 | -0.40294 | 496 ft | 139 kts | 269° |
| 2026-05-03 21:02 | 51.47765 | -0.41848 | 299 ft | 139 kts | 269° |
| 2026-05-03 21:02 | 51.47769 | -0.42871 | 172 ft | 138 kts | 271° |
| 2026-05-03 21:02 | 51.47759 | -0.44357 | 87 ft | 120 kts | 270° |
| 2026-05-03 21:03 | 51.47761 | -0.45418 | 86 ft | 70 kts | 269° |
| 2026-05-03 21:03 | 51.47760 | -0.45993 | 86 ft | 44 kts | 270° |
| 2026-05-03 21:03 | 51.47758 | -0.46446 | 90 ft | 36 kts | 263° |
| 2026-05-03 21:03 | 51.47680 | -0.46788 | 88 ft | 28 kts | 242° |
| 2026-05-03 21:04 | 51.47606 | -0.46902 | 88 ft | 9 kts | 211° |
| 2026-05-03 21:04 | 51.47582 | -0.47007 | 87 ft | 13 kts | 271° |
| 2026-05-03 21:04 | 51.47581 | -0.47175 | 90 ft | 17 kts | 270° |
| 2026-05-03 21:04 | 51.47581 | -0.47374 | 90 ft | 19 kts | 269° |
| 2026-05-03 21:05 | 51.47583 | -0.47564 | 90 ft | 16 kts | 270° |
| 2026-05-03 21:05 | 51.47579 | -0.47761 | 89 ft | 19 kts | 271° |
| 2026-05-03 21:05 | 51.47579 | -0.47983 | 88 ft | 19 kts | 269° |
| 2026-05-03 21:05 | 51.47578 | -0.48207 | 87 ft | 21 kts | 270° |
| 2026-05-03 21:06 | 51.47577 | -0.48372 | 87 ft | 13 kts | 269° |
| 2026-05-03 21:06 | 51.47524 | -0.48478 | 88 ft | 15 kts | 183° |
| 2026-05-03 21:06 | 51.47413 | -0.48478 | 87 ft | 17 kts | 179° |
| 2026-05-03 21:06 | 51.47358 | -0.48511 | 88 ft | 6 kts | 266° |
| 2026-05-03 21:07 | 51.47359 | -0.48547 | 87 ft | 4 kts | 269° |
| 2026-05-03 21:07 | 51.47361 | -0.48583 | 87 ft | 0 kts | 268° |
| 2026-05-03 21:07 | 51.47360 | -0.48589 | 89 ft | 0 kts | 267° |